メインページ
METAR-TAF:

METAR-TAF

空港 :

桂林, 中華人民共和国

桂林両江国際空港

緯度: 25-20N, 経度: 110-18E, 海抜: 166m

現時点の気象観測

当レポートは1時間3分前の04:00(UTC)に作成
北東の風 10kt、からの間で変化する
気温 22°C
湿度 57%
気圧 1018 hPa
視程10km以上
高度3600ftの雲は散在している
高度6600ftの千切れ雲あり

METAR: ZGKL 210400Z 04005MPS 010V180 9999 SCT036 BKN066 22/13 Q1018 NOSIG

時間: 13:03 (05:03 UTC)

予報

当レポートは9時間51分前の19:12(UTC)に作成
予報は21日の 00時(UTC)から 21日の 24時(UTC)まで有効
北東の風 6kt
視程10km以上
高度3300ftの雲は散在している
高度6000ftの千切れ雲あり

TAF: ZGKL 201912Z 2100/2124 05003MPS 9999 SCT033 BKN060 TX25/2108Z TN16/2122Z

4,000以上の空港の気象観測と天気予報(METAR報とTAF報)

利用可能な観測所は地図上に黄色い丸と赤い丸で示す。

丸の上にカーソルを重ねると観測所名を参照できる。

次にクリックすると気象観測と天気予報を参照できる。

マップの切り替え:黒色「×」印の緑ボタンをクリックして拡大、「-」印の緑ボタンをクリックして縮小、緑色の三角印をクリックして隣りの地図に切り替え


METAR-TAF: